Time;durP1;ratioP1;P1;durP2;ratioP2;P2;SDS_P1;SDS_P2;PMS_P1;PMS_P2;Temp;Humidity;BMP_temperature;BMP_pressure;BME280_temperature;BME280_humidity;BME280_pressure;Samples;Min_cycle;Max_cycle;Signal;HPM_P1;HPM_P2
2021/12/30 00:01:22;;;;;;;;;;;12.80;99.90;;;;;;5016369;28;19928;-70
2021/12/30 00:03:49;;;;;;;;;;;12.80;99.90;;;;;;5017774;28;19928;-70
2021/12/30 00:06:21;;;;;;;;;;;12.80;99.90;;;;;;5017617;28;19948;-71
2021/12/30 00:08:48;;;;;;;;;;;12.80;99.90;;;;;;5017193;28;19943;-71
2021/12/30 00:11:15;;;;;;;;;;;12.80;99.90;;;;;;5016974;28;19929;-70
2021/12/30 00:13:45;;;;;;;;;;;12.80;99.90;;;;;;5017312;28;19929;-70
2021/12/30 00:16:11;;;;;;;;;;;12.80;99.90;;;;;;5017414;28;19925;-70
2021/12/30 00:18:38;;;;;;;;;;;12.90;99.90;;;;;;5017473;28;19935;-70
2021/12/30 00:21:05;;;;;;;;;;;12.90;99.90;;;;;;4999268;28;19929;-70
2021/12/30 00:23:33;;;;;;;;;;;12.90;99.90;;;;;;5017411;28;20308;-70
2021/12/30 00:26:00;;;;;;;;;;;12.90;99.90;;;;;;5017878;28;19929;-71
2021/12/30 00:28:28;;;;;;;;;;;12.90;99.90;;;;;;5017277;28;19944;-71
2021/12/30 00:30:55;;;;;;;;;;;12.90;99.90;;;;;;5016780;28;19928;-70
2021/12/30 00:33:22;;;;;;;;;;;12.90;99.90;;;;;;5016912;28;19951;-71
2021/12/30 00:35:49;;;;;;;;;;;12.80;99.90;;;;;;5017906;28;19936;-70
2021/12/30 00:38:16;;;;;;;;;;;12.80;99.90;;;;;;5018513;28;19940;-70
2021/12/30 00:40:44;;;;;;;;;;;12.80;99.90;;;;;;5017186;28;19936;-72
2021/12/30 00:43:11;;;;;;;;;;;12.80;99.90;;;;;;5016491;28;19929;-70
2021/12/30 00:45:38;;;;;;;;;;;12.80;99.90;;;;;;5018064;28;19925;-70
2021/12/30 00:48:06;;;;;;;;;;;12.70;99.90;;;;;;5018182;28;20453;-70
2021/12/30 00:50:33;;;;;;;;;;;12.70;99.90;;;;;;5016464;28;19929;-71
2021/12/30 00:53:01;;;;;;;;;;;12.70;99.90;;;;;;5016833;28;20532;-71
2021/12/30 00:55:28;;;;;;;;;;;12.70;99.90;;;;;;5016887;28;20435;-71
2021/12/30 00:57:56;;;;;;;;;;;12.60;99.90;;;;;;5017736;28;19937;-71
2021/12/30 01:00:23;;;;;;;;;;;12.70;99.90;;;;;;5016350;28;19929;-71
2021/12/30 01:02:50;;;;;;;;;;;12.60;99.90;;;;;;5016842;28;19929;-71
2021/12/30 01:05:17;;;;;;;;;;;12.60;99.90;;;;;;5016545;28;19929;-69
2021/12/30 01:07:43;;;;;;;;;;;12.60;99.90;;;;;;5017707;28;20359;-70
2021/12/30 01:10:12;;;;;;;;;;;12.60;99.90;;;;;;5016761;28;20282;-70
2021/12/30 01:12:39;;;;;;;;;;;12.60;99.90;;;;;;5019258;28;20034;-70
2021/12/30 01:15:10;;;;;;;;;;;12.60;99.90;;;;;;5020913;28;19929;-69
2021/12/30 01:17:46;;;;;;;;;;;12.60;99.90;;;;;;5020842;28;19933;-69
2021/12/30 01:20:14;;;;;;;;;;;12.60;99.90;;;;;;5002710;28;19929;-69
2021/12/30 01:22:41;;;;;;;;;;;12.80;99.90;;;;;;5019974;28;20024;-69
2021/12/30 01:25:09;;;;;;;;;;;12.50;99.90;;;;;;5020171;28;20516;-69
2021/12/30 01:27:36;;;;;;;;;;;12.60;99.90;;;;;;5020781;28;19933;-69
2021/12/30 01:30:04;;;;;;;;;;;12.60;99.90;;;;;;5020680;28;19929;-69
2021/12/30 01:32:32;;;;;;;;;;;12.60;99.90;;;;;;5019075;28;19933;-69
2021/12/30 01:34:59;;;;;;;;;;;12.60;99.90;;;;;;5019831;28;19935;-69
2021/12/30 01:37:26;;;;;;;;;;;12.60;99.90;;;;;;5019830;28;19983;-69
2021/12/30 01:39:53;;;;;;;;;;;12.60;99.90;;;;;;5020435;28;19936;-69
2021/12/30 01:42:20;;;;;;;;;;;13.10;99.90;;;;;;5019039;28;19929;-69
2021/12/30 01:44:47;;;;;;;;;;;12.70;99.90;;;;;;5002628;28;19951;-69
2021/12/30 01:47:14;;;;;;;;;;;12.70;99.90;;;;;;5020025;28;19929;-69
2021/12/30 01:49:42;;;;;;;;;;;12.70;99.90;;;;;;5020615;28;19951;-69
2021/12/30 01:52:09;;;;;;;;;;;12.70;99.90;;;;;;5019503;28;19936;-69
2021/12/30 01:54:35;;;;;;;;;;;12.70;99.90;;;;;;5019388;28;20020;-69
2021/12/30 01:57:03;;;;;;;;;;;12.70;99.90;;;;;;5001244;28;19929;-69
2021/12/30 01:59:30;;;;;;;;;;;12.70;99.90;;;;;;5019867;28;19931;-69
2021/12/30 02:01:57;;;;;;;;;;;12.70;99.90;;;;;;5019925;28;19929;-69
2021/12/30 02:04:24;;;;;;;;;;;12.70;99.90;;;;;;5018542;28;19929;-69
2021/12/30 02:06:52;;;;;;;;;;;12.70;99.90;;;;;;5011430;28;19929;-69
2021/12/30 02:09:20;;;;;;;;;;;13.10;99.90;;;;;;5001567;28;19936;-69
2021/12/30 02:11:47;;;;;;;;;;;12.80;99.90;;;;;;5019134;28;20389;-69
2021/12/30 02:14:14;;;;;;;;;;;12.80;99.90;;;;;;5019546;28;19973;-69
2021/12/30 02:16:41;;;;;;;;;;;12.70;99.90;;;;;;5019128;28;19936;-69
2021/12/30 02:19:08;;;;;;;;;;;13.10;99.90;;;;;;5018989;28;19952;-69
2021/12/30 02:21:36;;;;;;;;;;;12.80;99.90;;;;;;5018203;28;19936;-69
2021/12/30 02:24:03;;;;;;;;;;;12.80;99.90;;;;;;5017460;28;19929;-69
2021/12/30 02:26:30;;;;;;;;;;;12.80;99.90;;;;;;5018808;28;19929;-70
2021/12/30 02:28:57;;;;;;;;;;;12.80;99.90;;;;;;5019234;28;19929;-70
2021/12/30 02:31:25;;;;;;;;;;;12.80;99.90;;;;;;5019465;28;19925;-70
2021/12/30 02:33:52;;;;;;;;;;;12.80;99.90;;;;;;5018425;28;19932;-70
2021/12/30 02:36:23;;;;;;;;;;;12.80;99.90;;;;;;5001208;28;19936;-69
2021/12/30 02:38:51;;;;;;;;;;;12.80;99.90;;;;;;5000651;28;20590;-69
2021/12/30 02:41:19;;;;;;;;;;;12.80;99.90;;;;;;5017819;28;20388;-69
2021/12/30 02:43:47;;;;;;;;;;;12.80;99.90;;;;;;5019226;28;19929;-70
2021/12/30 02:46:14;;;;;;;;;;;12.80;99.90;;;;;;5018062;28;19983;-69
2021/12/30 02:48:41;;;;;;;;;;;12.80;99.90;;;;;;5018512;28;19929;-69
2021/12/30 02:51:09;;;;;;;;;;;12.80;99.90;;;;;;5018583;28;20081;-69
2021/12/30 02:53:37;;;;;;;;;;;12.80;99.90;;;;;;5018404;28;19928;-69
2021/12/30 02:56:05;;;;;;;;;;;13.70;99.90;;;;;;5018031;28;19935;-69
2021/12/30 02:58:32;;;;;;;;;;;12.80;99.90;;;;;;5017673;28;19933;-69
2021/12/30 03:01:06;;;;;;;;;;;12.80;99.90;;;;;;5018353;28;19940;-69
2021/12/30 03:03:33;;;;;;;;;;;12.90;99.90;;;;;;5019482;28;20518;-70
2021/12/30 03:06:01;;;;;;;;;;;12.90;99.90;;;;;;5018449;28;19935;-69
2021/12/30 03:08:28;;;;;;;;;;;13.60;99.90;;;;;;5018667;28;19936;-69
2021/12/30 03:10:55;;;;;;;;;;;12.90;99.90;;;;;;5018531;28;19959;-69
2021/12/30 03:13:30;;;;;;;;;;;12.90;99.90;;;;;;5000462;28;19925;-69
2021/12/30 03:15:57;;;;;;;;;;;12.90;99.90;;;;;;5017927;28;20027;-69
2021/12/30 03:18:24;;;;;;;;;;;12.90;99.90;;;;;;5017751;28;19925;-71
2021/12/30 03:20:50;;;;;;;;;;;13.40;99.90;;;;;;5018212;28;20330;-70
2021/12/30 03:23:17;;;;;;;;;;;12.90;99.90;;;;;;5014306;28;19928;-69
2021/12/30 03:25:44;;;;;;;;;;;12.90;99.90;;;;;;5017801;28;19929;-69
2021/12/30 03:28:11;;;;;;;;;;;12.90;99.90;;;;;;5017656;28;19936;-69
2021/12/30 03:30:39;;;;;;;;;;;12.90;99.90;;;;;;5017743;28;20394;-69
2021/12/30 03:33:05;;;;;;;;;;;12.90;99.90;;;;;;5018185;28;19929;-69
2021/12/30 03:35:32;;;;;;;;;;;12.90;99.90;;;;;;5016818;28;20899;-69
2021/12/30 03:37:59;;;;;;;;;;;12.90;99.90;;;;;;5017312;28;19925;-69
2021/12/30 03:40:25;;;;;;;;;;;13.00;99.90;;;;;;4999776;28;20387;-69
2021/12/30 03:42:52;;;;;;;;;;;12.90;99.90;;;;;;5018163;28;20418;-69
2021/12/30 03:45:19;;;;;;;;;;;12.90;99.90;;;;;;5017625;28;19933;-69
2021/12/30 03:47:49;;;;;;;;;;;13.00;99.90;;;;;;5017059;28;19928;-69
2021/12/30 03:50:20;;;;;;;;;;;13.00;99.90;;;;;;5017328;28;19929;-69
2021/12/30 03:52:48;;;;;;;;;;;13.00;99.90;;;;;;5000546;28;19929;-69
2021/12/30 03:55:14;;;;;;;;;;;13.50;99.90;;;;;;5017647;28;19929;-71
2021/12/30 03:57:41;;;;;;;;;;;13.00;99.90;;;;;;5017283;28;19929;-69
2021/12/30 04:00:08;;;;;;;;;;;13.00;99.90;;;;;;5017289;28;20469;-69
2021/12/30 04:02:35;;;;;;;;;;;13.00;99.90;;;;;;5018044;28;19937;-69
2021/12/30 04:05:04;;;;;;;;;;;13.10;99.90;;;;;;5017310;28;19936;-69
2021/12/30 04:07:30;;;;;;;;;;;13.10;99.90;;;;;;5017523;28;19929;-69
2021/12/30 04:09:57;;;;;;;;;;;14.40;99.90;;;;;;5017404;28;19928;-69
2021/12/30 04:12:24;;;;;;;;;;;13.10;99.90;;;;;;5017669;28;19960;-69
2021/12/30 04:14:50;;;;;;;;;;;13.10;99.90;;;;;;5017584;28;20524;-69
2021/12/30 04:17:17;;;;;;;;;;;14.30;99.90;;;;;;5016806;28;19929;-69
2021/12/30 04:19:44;;;;;;;;;;;13.10;99.90;;;;;;5017230;28;20314;-69
2021/12/30 04:22:14;;;;;;;;;;;13.10;99.90;;;;;;5016898;28;19929;-69
2021/12/30 04:24:41;;;;;;;;;;;13.10;99.90;;;;;;5017716;28;19936;-69
2021/12/30 04:27:08;;;;;;;;;;;13.10;99.90;;;;;;5017162;28;19951;-69
2021/12/30 04:29:34;;;;;;;;;;;13.10;99.90;;;;;;5000156;28;19937;-69
2021/12/30 04:32:01;;;;;;;;;;;13.10;99.90;;;;;;5016446;28;20616;-69
2021/12/30 04:34:28;;;;;;;;;;;13.00;99.90;;;;;;5017368;28;19929;-69
2021/12/30 04:36:58;;;;;;;;;;;13.00;99.90;;;;;;5016657;28;19929;-69
2021/12/30 04:39:26;;;;;;;;;;;13.20;99.90;;;;;;5017552;28;19936;-69
2021/12/30 04:41:53;;;;;;;;;;;12.90;99.90;;;;;;5016714;28;20478;-69
2021/12/30 04:44:20;;;;;;;;;;;12.90;99.90;;;;;;5017896;28;20468;-69
2021/12/30 04:46:47;;;;;;;;;;;12.90;99.90;;;;;;5019218;28;20313;-70
2021/12/30 04:49:13;;;;;;;;;;;12.90;99.90;;;;;;5020800;28;19929;-69
2021/12/30 04:51:40;;;;;;;;;;;12.90;99.90;;;;;;5018603;28;19928;-69
2021/12/30 04:54:07;;;;;;;;;;;12.90;99.90;;;;;;5020492;28;19929;-69
2021/12/30 04:56:35;;;;;;;;;;;13.00;99.90;;;;;;5020636;28;20263;-68
2021/12/30 04:59:02;;;;;;;;;;;13.00;99.90;;;;;;5020279;28;20038;-69
2021/12/30 05:01:28;;;;;;;;;;;12.90;99.90;;;;;;5019918;28;20531;-69
2021/12/30 05:03:55;;;;;;;;;;;13.20;99.90;;;;;;5020975;28;19928;-69
2021/12/30 05:06:22;;;;;;;;;;;12.90;99.90;;;;;;5021463;28;19936;-69
2021/12/30 05:08:49;;;;;;;;;;;13.00;99.90;;;;;;5020549;28;19929;-69
2021/12/30 05:11:15;;;;;;;;;;;13.00;99.90;;;;;;5020273;28;20452;-69
2021/12/30 05:13:43;;;;;;;;;;;13.00;99.90;;;;;;5020953;28;19930;-69
2021/12/30 05:16:10;;;;;;;;;;;13.00;99.90;;;;;;5020600;28;19929;-69
2021/12/30 05:18:37;;;;;;;;;;;13.00;99.90;;;;;;5019839;28;19929;-69
2021/12/30 05:21:05;;;;;;;;;;;13.00;99.90;;;;;;5019757;28;20067;-69
2021/12/30 05:23:32;;;;;;;;;;;13.00;99.90;;;;;;5020831;28;19929;-69
2021/12/30 05:25:59;;;;;;;;;;;13.00;99.90;;;;;;5020992;28;20336;-69
2021/12/30 05:28:25;;;;;;;;;;;13.00;99.90;;;;;;5020227;28;20333;-69
2021/12/30 05:30:53;;;;;;;;;;;13.00;99.90;;;;;;5019106;28;19929;-69
2021/12/30 05:33:20;;;;;;;;;;;13.00;99.90;;;;;;5019604;28;20804;-69
2021/12/30 05:35:47;;;;;;;;;;;13.00;99.90;;;;;;5021012;28;20390;-69
2021/12/30 05:38:16;;;;;;;;;;;13.00;99.90;;;;;;5019289;28;20520;-70
2021/12/30 05:40:43;;;;;;;;;;;13.00;99.90;;;;;;5020763;28;20284;-69
2021/12/30 05:43:10;;;;;;;;;;;13.00;99.90;;;;;;5021519;28;20309;-69
2021/12/30 05:45:37;;;;;;;;;;;13.00;99.90;;;;;;5021024;28;20437;-69
2021/12/30 05:48:05;;;;;;;;;;;13.10;99.90;;;;;;5019645;28;20357;-69
2021/12/30 05:50:32;;;;;;;;;;;13.10;99.90;;;;;;5019314;28;19933;-69
2021/12/30 05:52:58;;;;;;;;;;;13.10;99.90;;;;;;5019393;28;20032;-69
2021/12/30 05:55:25;;;;;;;;;;;13.20;99.90;;;;;;5020402;28;19932;-69
2021/12/30 05:57:54;;;;;;;;;;;13.20;99.90;;;;;;5018887;28;19972;-69
2021/12/30 06:00:22;;;;;;;;;;;13.20;99.90;;;;;;5019038;28;20382;-69
2021/12/30 06:02:50;;;;;;;;;;;13.30;99.90;;;;;;5019426;28;19929;-69
2021/12/30 06:05:18;;;;;;;;;;;13.30;99.90;;;;;;5020206;28;19929;-69
2021/12/30 06:07:45;;;;;;;;;;;14.30;99.90;;;;;;5020719;28;19929;-69
2021/12/30 06:10:12;;;;;;;;;;;13.40;99.90;;;;;;5002008;28;20318;-69
2021/12/30 06:12:39;;;;;;;;;;;13.40;99.90;;;;;;5019739;28;19936;-69
2021/12/30 06:15:06;;;;;;;;;;;14.20;99.90;;;;;;5019585;28;19940;-69
2021/12/30 06:17:33;;;;;;;;;;;13.50;99.90;;;;;;5019856;28;19936;-69
2021/12/30 06:20:00;;;;;;;;;;;13.50;99.90;;;;;;5018614;28;20012;-69
2021/12/30 06:22:28;;;;;;;;;;;13.60;99.90;;;;;;5019119;28;19928;-70
2021/12/30 06:24:55;;;;;;;;;;;13.60;99.90;;;;;;5019611;28;19929;-70
2021/12/30 06:27:21;;;;;;;;;;;13.60;99.90;;;;;;5020651;28;19936;-70
2021/12/30 06:29:48;;;;;;;;;;;13.70;99.90;;;;;;5019288;28;20055;-70
2021/12/30 06:32:15;;;;;;;;;;;13.70;99.90;;;;;;5018428;28;19943;-69
2021/12/30 06:34:42;;;;;;;;;;;13.70;99.90;;;;;;5019817;28;19944;-70
2021/12/30 06:37:09;;;;;;;;;;;13.70;99.90;;;;;;5019605;28;19929;-70
2021/12/30 06:39:37;;;;;;;;;;;13.80;99.90;;;;;;5019284;28;20511;-69
2021/12/30 06:42:04;;;;;;;;;;;13.80;99.90;;;;;;5018564;28;19929;-70
2021/12/30 06:44:31;;;;;;;;;;;13.80;99.90;;;;;;5019008;28;20817;-69
2021/12/30 06:47:00;;;;;;;;;;;13.90;99.90;;;;;;5001198;28;19944;-69
2021/12/30 06:49:34;;;;;;;;;;;13.90;99.90;;;;;;5019134;28;20015;-69
2021/12/30 06:52:01;;;;;;;;;;;13.90;99.90;;;;;;5017938;28;19936;-69
2021/12/30 06:54:27;;;;;;;;;;;14.00;99.90;;;;;;5017801;28;19929;-69
2021/12/30 06:56:55;;;;;;;;;;;14.00;99.90;;;;;;5018794;28;19955;-69
2021/12/30 06:59:22;;;;;;;;;;;14.00;99.90;;;;;;5018883;28;20127;-69
2021/12/30 07:01:49;;;;;;;;;;;14.10;99.90;;;;;;5020284;28;19936;-70
2021/12/30 07:04:16;;;;;;;;;;;14.10;99.90;;;;;;5019588;28;19936;-70
2021/12/30 07:06:42;;;;;;;;;;;14.10;99.90;;;;;;5020560;28;19932;-70
2021/12/30 07:09:09;;;;;;;;;;;14.10;99.90;;;;;;5020478;28;19936;-70
2021/12/30 07:11:36;;;;;;;;;;;14.20;99.90;;;;;;5019529;28;19935;-69
2021/12/30 07:14:04;;;;;;;;;;;14.20;99.90;;;;;;5019467;28;20461;-69
2021/12/30 07:16:31;;;;;;;;;;;14.20;99.90;;;;;;5020926;28;19980;-70
2021/12/30 07:18:57;;;;;;;;;;;14.20;99.90;;;;;;5021484;28;19978;-69
2021/12/30 07:21:24;;;;;;;;;;;14.30;99.90;;;;;;5019766;28;20410;-70
2021/12/30 07:23:51;;;;;;;;;;;14.30;99.90;;;;;;5020411;28;20297;-70
2021/12/30 07:26:17;;;;;;;;;;;14.30;99.90;;;;;;5020856;28;19936;-70
2021/12/30 07:28:44;;;;;;;;;;;14.30;99.90;;;;;;5022071;28;19929;-70
2021/12/30 07:31:12;;;;;;;;;;;14.30;99.90;;;;;;5019250;28;19952;-71
2021/12/30 07:33:39;;;;;;;;;;;14.30;99.90;;;;;;5019521;28;19929;-70
2021/12/30 07:36:06;;;;;;;;;;;14.30;99.90;;;;;;4999531;28;19937;-70
2021/12/30 07:38:33;;;;;;;;;;;14.30;99.90;;;;;;5018979;28;19929;-70
2021/12/30 07:41:00;;;;;;;;;;;14.30;99.90;;;;;;5019013;28;19929;-70
2021/12/30 07:43:26;;;;;;;;;;;14.30;99.90;;;;;;5020900;28;20425;-70
2021/12/30 07:45:53;;;;;;;;;;;14.30;99.90;;;;;;5019430;28;20686;-70
2021/12/30 07:48:26;;;;;;;;;;;14.10;99.90;;;;;;5001704;28;19929;-70
2021/12/30 07:50:52;;;;;;;;;;;14.30;99.90;;;;;;5020176;28;20517;-70
2021/12/30 07:53:20;;;;;;;;;;;14.80;99.90;;;;;;5019432;28;19936;-70
2021/12/30 07:55:46;;;;;;;;;;;14.30;99.90;;;;;;5020332;28;19928;-70
2021/12/30 07:58:13;;;;;;;;;;;14.40;99.90;;;;;;5019768;28;20378;-70
2021/12/30 08:00:40;;;;;;;;;;;14.40;99.90;;;;;;5018429;28;19983;-70
2021/12/30 08:03:07;;;;;;;;;;;14.30;99.90;;;;;;5017827;28;20438;-71
2021/12/30 08:05:35;;;;;;;;;;;14.70;99.90;;;;;;5018345;28;19948;-70
2021/12/30 08:08:02;;;;;;;;;;;14.30;99.90;;;;;;5017142;28;19929;-71
2021/12/30 08:10:29;;;;;;;;;;;14.30;99.90;;;;;;5017248;28;19936;-70
2021/12/30 08:12:56;;;;;;;;;;;14.30;99.90;;;;;;5017038;28;19936;-69
2021/12/30 08:15:24;;;;;;;;;;;14.30;99.90;;;;;;5015228;28;19925;-70
2021/12/30 08:17:51;;;;;;;;;;;14.30;99.90;;;;;;5017309;28;19933;-70
2021/12/30 08:20:18;;;;;;;;;;;14.40;99.90;;;;;;5018749;28;19933;-70
2021/12/30 08:22:46;;;;;;;;;;;15.10;99.90;;;;;;5019354;28;19936;-70
2021/12/30 08:25:13;;;;;;;;;;;14.40;99.90;;;;;;5021925;28;19932;-69
2021/12/30 08:27:40;;;;;;;;;;;14.40;99.90;;;;;;5020810;28;20287;-69
2021/12/30 08:30:08;;;;;;;;;;;14.40;99.90;;;;;;5018356;28;19995;-69
2021/12/30 08:32:35;;;;;;;;;;;14.40;99.90;;;;;;5021921;28;19983;-69
2021/12/30 08:35:02;;;;;;;;;;;14.40;99.90;;;;;;5021311;28;19929;-69
2021/12/30 08:37:28;;;;;;;;;;;14.30;99.90;;;;;;5020838;28;20424;-69
2021/12/30 08:39:56;;;;;;;;;;;14.50;99.90;;;;;;5021551;28;19929;-68
2021/12/30 08:42:24;;;;;;;;;;;14.50;99.90;;;;;;5004325;28;20035;-69
2021/12/30 08:44:51;;;;;;;;;;;14.30;99.90;;;;;;5022862;28;19936;-69
2021/12/30 08:47:18;;;;;;;;;;;14.20;99.90;;;;;;5003310;28;19929;-69
2021/12/30 08:49:46;;;;;;;;;;;14.20;99.90;;;;;;5023501;28;20402;-69
2021/12/30 08:52:13;;;;;;;;;;;14.20;99.90;;;;;;5022677;28;20307;-69
2021/12/30 08:54:40;;;;;;;;;;;14.20;99.90;;;;;;5021223;28;20389;-69
2021/12/30 08:57:08;;;;;;;;;;;14.20;99.90;;;;;;5019193;28;20406;-69
2021/12/30 08:59:36;;;;;;;;;;;14.20;99.90;;;;;;5018336;28;19929;-69
2021/12/30 09:02:03;;;;;;;;;;;14.20;99.90;;;;;;5020135;28;19929;-69
2021/12/30 09:04:30;;;;;;;;;;;14.20;99.90;;;;;;5019464;28;19928;-69
2021/12/30 09:06:57;;;;;;;;;;;14.20;99.90;;;;;;5019570;28;19929;-69
2021/12/30 09:09:24;;;;;;;;;;;15.40;99.90;;;;;;5020984;28;20461;-70
2021/12/30 09:11:50;;;;;;;;;;;14.30;99.90;;;;;;5021399;28;19929;-70
2021/12/30 09:14:18;;;;;;;;;;;14.40;99.90;;;;;;5019575;28;19929;-70
2021/12/30 09:16:45;;;;;;;;;;;14.50;99.90;;;;;;5020936;28;19929;-70
2021/12/30 09:19:12;;;;;;;;;;;14.50;99.90;;;;;;5020899;28;20494;-70
2021/12/30 09:21:39;;;;;;;;;;;14.60;99.90;;;;;;5020620;28;19929;-70
2021/12/30 09:24:06;;;;;;;;;;;14.60;99.90;;;;;;5021010;28;20445;-70
2021/12/30 09:26:33;;;;;;;;;;;14.70;99.90;;;;;;5020761;28;19936;-70
2021/12/30 09:29:00;;;;;;;;;;;14.70;99.90;;;;;;5019963;28;19929;-70
2021/12/30 09:31:28;;;;;;;;;;;14.80;99.90;;;;;;5017601;28;20432;-70
2021/12/30 09:33:57;;;;;;;;;;;14.90;99.90;;;;;;5014658;28;20061;-70
2021/12/30 09:36:24;;;;;;;;;;;15.00;99.90;;;;;;4998242;28;20378;-70
2021/12/30 09:38:51;;;;;;;;;;;15.00;99.90;;;;;;5015193;28;19929;-70
2021/12/30 09:41:18;;;;;;;;;;;15.10;99.90;;;;;;5014133;28;19935;-70
2021/12/30 09:43:45;;;;;;;;;;;15.20;99.90;;;;;;5014764;28;19929;-69
2021/12/30 09:46:12;;;;;;;;;;;15.30;99.90;;;;;;5012276;28;19929;-70
2021/12/30 09:48:40;;;;;;;;;;;15.40;99.90;;;;;;5015363;28;20027;-70
2021/12/30 09:51:08;;;;;;;;;;;15.60;99.90;;;;;;5011912;28;19936;-70
2021/12/30 09:53:34;;;;;;;;;;;15.80;99.90;;;;;;5011765;28;19929;-70
2021/12/30 09:56:01;;;;;;;;;;;16.00;99.90;;;;;;5013412;28;19929;-70
2021/12/30 09:58:29;;;;;;;;;;;16.20;99.90;;;;;;5016135;28;19936;-71
2021/12/30 10:00:56;;;;;;;;;;;16.10;99.90;;;;;;5016366;28;19925;-69
2021/12/30 10:03:22;;;;;;;;;;;16.20;99.90;;;;;;5019732;28;19929;-70
2021/12/30 10:05:51;;;;;;;;;;;16.30;99.90;;;;;;5016661;28;20024;-70
2021/12/30 10:08:18;;;;;;;;;;;16.40;99.90;;;;;;5014258;28;20349;-69
2021/12/30 10:10:47;;;;;;;;;;;16.40;99.90;;;;;;5015185;28;21061;-70
2021/12/30 10:13:31;;;;;;;;;;;16.50;99.90;;;;;;5015437;28;19936;-70
2021/12/30 10:15:59;;;;;;;;;;;16.50;99.90;;;;;;5015052;28;19936;-70
2021/12/30 10:18:41;;;;;;;;;;;16.50;99.90;;;;;;5013434;28;19936;-70
2021/12/30 10:21:13;;;;;;;;;;;16.70;99.90;;;;;;5007307;28;19936;-71
2021/12/30 10:23:42;;;;;;;;;;;16.80;99.90;;;;;;5012928;28;20401;-71
2021/12/30 10:26:09;;;;;;;;;;;16.80;99.90;;;;;;5015865;28;19960;-71
2021/12/30 10:28:37;;;;;;;;;;;16.70;99.90;;;;;;5015379;28;19956;-70
2021/12/30 10:31:15;;;;;;;;;;;16.60;99.90;;;;;;5015794;28;20036;-70
2021/12/30 10:33:46;;;;;;;;;;;16.60;99.90;;;;;;4998210;28;19956;-70
2021/12/30 10:36:16;;;;;;;;;;;16.50;99.90;;;;;;5019661;28;19940;-71
2021/12/30 10:38:43;;;;;;;;;;;16.60;99.90;;;;;;5022850;28;20406;-70
2021/12/30 10:41:10;;;;;;;;;;;16.60;99.90;;;;;;5021771;28;19929;-71
2021/12/30 10:43:45;;;;;;;;;;;16.60;99.90;;;;;;5020816;28;19925;-70
2021/12/30 10:46:14;;;;;;;;;;;16.60;99.90;;;;;;5020792;28;20372;-70
2021/12/30 10:48:48;;;;;;;;;;;16.60;99.90;;;;;;5021748;28;19929;-70
2021/12/30 10:51:18;;;;;;;;;;;16.60;99.90;;;;;;5020749;28;19936;-71
2021/12/30 10:53:45;;;;;;;;;;;16.60;99.90;;;;;;5019998;28;19929;-70
2021/12/30 10:56:18;;;;;;;;;;;16.50;99.90;;;;;;5018263;28;19933;-71
2021/12/30 10:58:45;;;;;;;;;;;16.40;99.90;;;;;;5019481;28;20019;-70
2021/12/30 11:01:14;;;;;;;;;;;16.30;99.90;;;;;;5020878;28;19937;-70
2021/12/30 11:03:42;;;;;;;;;;;16.20;99.90;;;;;;5018790;28;19929;-71
2021/12/30 11:06:10;;;;;;;;;;;16.20;99.90;;;;;;5020467;28;19932;-70
2021/12/30 11:08:38;;;;;;;;;;;16.20;99.90;;;;;;5019112;28;19944;-69
2021/12/30 11:11:21;;;;;;;;;;;16.20;99.90;;;;;;5020497;28;19936;-70
2021/12/30 11:13:56;;;;;;;;;;;16.10;99.90;;;;;;5020733;28;20326;-71
2021/12/30 11:16:23;;;;;;;;;;;15.90;99.90;;;;;;5019656;28;19945;-69
2021/12/30 11:18:50;;;;;;;;;;;15.90;99.90;;;;;;5018379;28;19955;-69
2021/12/30 11:21:31;;;;;;;;;;;15.90;99.90;;;;;;5018352;28;20248;-70
2021/12/30 11:23:59;;;;;;;;;;;15.90;99.90;;;;;;5018334;28;19952;-70
2021/12/30 11:26:26;;;;;;;;;;;15.90;99.90;;;;;;5017855;28;19940;-70
2021/12/30 11:28:53;;;;;;;;;;;16.10;99.90;;;;;;5017398;28;19936;-70
2021/12/30 11:31:20;;;;;;;;;;;15.90;99.90;;;;;;5018350;28;19944;-70
2021/12/30 11:33:47;;;;;;;;;;;15.90;99.90;;;;;;5018556;28;19929;-70
2021/12/30 11:36:13;;;;;;;;;;;15.90;99.90;;;;;;5017749;28;19936;-70
2021/12/30 11:38:40;;;;;;;;;;;16.00;99.90;;;;;;5017716;28;20306;-70
2021/12/30 11:41:08;;;;;;;;;;;16.00;99.90;;;;;;5016855;28;19928;-70
2021/12/30 11:43:42;;;;;;;;;;;16.10;99.90;;;;;;5019031;28;19940;-70
2021/12/30 11:46:29;;;;;;;;;;;16.20;99.90;;;;;;5016295;28;20102;-70
2021/12/30 11:48:57;;;;;;;;;;;16.30;99.90;;;;;;5017344;28;19935;-70
2021/12/30 11:51:40;;;;;;;;;;;16.30;99.90;;;;;;5014253;28;20054;-70
2021/12/30 11:54:21;;;;;;;;;;;16.20;99.90;;;;;;5017864;28;19933;-70
2021/12/30 11:57:09;;;;;;;;;;;16.20;99.90;;;;;;5016064;28;19931;-70
2021/12/30 11:59:39;;;;;;;;;;;16.10;99.90;;;;;;5019518;28;19925;-70
2021/12/30 12:02:20;;;;;;;;;;;16.10;99.90;;;;;;5024463;28;19925;-70
2021/12/30 12:04:47;;;;;;;;;;;16.10;99.90;;;;;;5022645;28;19925;-69
2021/12/30 12:07:14;;;;;;;;;;;16.10;99.90;;;;;;5019160;28;20422;-70
2021/12/30 12:09:42;;;;;;;;;;;16.10;99.90;;;;;;5018559;28;19925;-69
2021/12/30 12:12:24;;;;;;;;;;;16.10;99.90;;;;;;5018557;28;19929;-69
2021/12/30 12:15:00;;;;;;;;;;;16.20;99.90;;;;;;5022785;28;19929;-69
2021/12/30 12:17:32;;;;;;;;;;;16.10;99.90;;;;;;5023559;28;20455;-70
2021/12/30 12:20:12;;;;;;;;;;;16.10;99.90;;;;;;5019249;28;20023;-70
2021/12/30 12:22:39;;;;;;;;;;;16.00;99.90;;;;;;5021709;28;19928;-70
2021/12/30 12:25:07;;;;;;;;;;;16.00;99.90;;;;;;5025052;28;20381;-70
2021/12/30 12:27:35;;;;;;;;;;;15.90;99.90;;;;;;5024813;28;20303;-70
2021/12/30 12:30:04;;;;;;;;;;;16.00;99.90;;;;;;5025016;28;19921;-69
2021/12/30 12:32:39;;;;;;;;;;;16.00;99.90;;;;;;5024481;28;19944;-70
2021/12/30 12:35:23;;;;;;;;;;;16.10;99.90;;;;;;5020478;28;20412;-69
2021/12/30 12:37:52;;;;;;;;;;;16.10;99.90;;;;;;5023435;28;19967;-70
2021/12/30 12:40:23;;;;;;;;;;;16.20;99.90;;;;;;5016584;28;19925;-70
2021/12/30 12:42:55;;;;;;;;;;;16.20;99.90;;;;;;4999886;28;19934;-71
2021/12/30 12:45:24;;;;;;;;;;;16.20;99.90;;;;;;5017211;28;19983;-71
2021/12/30 12:48:05;;;;;;;;;;;16.30;99.90;;;;;;5024363;28;19929;-71
2021/12/30 12:50:38;;;;;;;;;;;16.30;99.90;;;;;;5016345;28;19929;-71
2021/12/30 12:53:19;;;;;;;;;;;16.30;99.90;;;;;;5022302;28;20359;-71
2021/12/30 12:55:45;;;;;;;;;;;16.30;99.90;;;;;;5018781;28;19932;-71
2021/12/30 12:58:12;;;;;;;;;;;16.20;99.90;;;;;;5018793;28;19920;-68
2021/12/30 13:00:40;;;;;;;;;;;16.20;99.90;;;;;;5023446;28;19925;-70
2021/12/30 13:03:09;;;;;;;;;;;16.30;99.90;;;;;;5021936;28;20016;-69
2021/12/30 13:05:36;;;;;;;;;;;16.30;99.90;;;;;;5020265;28;19922;-71
2021/12/30 13:08:03;;;;;;;;;;;16.30;99.90;;;;;;5026822;28;19928;-71
2021/12/30 13:10:29;;;;;;;;;;;16.30;99.90;;;;;;5027446;28;19936;-71
2021/12/30 13:13:00;;;;;;;;;;;16.30;99.90;;;;;;5023405;28;19921;-70
2021/12/30 13:15:26;;;;;;;;;;;16.30;99.90;;;;;;5024801;28;19968;-70
2021/12/30 13:17:58;;;;;;;;;;;16.40;99.90;;;;;;5028101;28;19929;-72
2021/12/30 13:20:26;;;;;;;;;;;16.40;99.90;;;;;;5011519;28;19925;-70
2021/12/30 13:22:56;;;;;;;;;;;16.40;99.90;;;;;;5028238;28;19928;-70
2021/12/30 13:25:23;;;;;;;;;;;16.30;99.90;;;;;;5027923;28;20394;-70
2021/12/30 13:27:51;;;;;;;;;;;16.30;99.90;;;;;;5026984;28;19925;-69
2021/12/30 13:30:19;;;;;;;;;;;16.30;99.90;;;;;;5029174;28;19921;-69
2021/12/30 13:32:48;;;;;;;;;;;16.40;99.90;;;;;;5030151;28;19971;-70
2021/12/30 13:35:17;;;;;;;;;;;16.40;99.90;;;;;;5030047;28;20426;-69
2021/12/30 13:37:45;;;;;;;;;;;16.40;99.90;;;;;;5027922;28;19925;-69
2021/12/30 13:40:17;;;;;;;;;;;16.30;99.90;;;;;;5023965;28;19931;-70
2021/12/30 13:42:48;;;;;;;;;;;16.30;99.90;;;;;;5006809;28;19960;-70
2021/12/30 13:45:15;;;;;;;;;;;16.20;99.90;;;;;;5024206;28;19964;-69
2021/12/30 13:47:42;;;;;;;;;;;16.20;99.90;;;;;;5026488;28;19983;-70
2021/12/30 13:50:11;;;;;;;;;;;16.20;99.90;;;;;;5024888;28;19928;-69
2021/12/30 13:52:40;;;;;;;;;;;16.10;99.90;;;;;;5023387;28;19924;-70
2021/12/30 13:55:22;;;;;;;;;;;16.10;99.90;;;;;;5023663;28;19925;-70
2021/12/30 13:57:57;;;;;;;;;;;16.00;99.90;;;;;;5024234;28;20294;-71
2021/12/30 14:00:23;;;;;;;;;;;16.00;99.90;;;;;;5024889;28;20278;-70
2021/12/30 14:02:59;;;;;;;;;;;16.00;99.90;;;;;;5026895;28;19929;-70
2021/12/30 14:05:26;;;;;;;;;;;16.00;99.90;;;;;;5021251;28;20029;-70
2021/12/30 14:07:54;;;;;;;;;;;15.10;99.90;;;;;;5019435;28;19925;-69
2021/12/30 14:10:21;;;;;;;;;;;16.00;99.90;;;;;;5022629;28;19921;-69
2021/12/30 14:12:55;;;;;;;;;;;16.00;99.90;;;;;;5015031;28;20420;-69
2021/12/30 14:15:22;;;;;;;;;;;16.00;99.90;;;;;;5024712;28;19932;-69
2021/12/30 14:17:57;;;;;;;;;;;15.80;99.90;;;;;;5021887;28;19996;-69
2021/12/30 14:20:24;;;;;;;;;;;16.10;99.90;;;;;;5020884;28;19951;-69
2021/12/30 14:22:50;;;;;;;;;;;15.40;99.90;;;;;;5022246;28;19929;-69